sensor_id;sensor_type;location;lat;lon;timestamp;P1;durP1;ratioP1;P2;durP2;ratioP2
9767;SDS011;4923;52.520;13.494;2022-11-20T00:01:15;7.38;;;5.57;;
9767;SDS011;4923;52.520;13.494;2022-11-20T00:04:11;7.55;;;6.25;;
9767;SDS011;4923;52.520;13.494;2022-11-20T00:06:58;5.85;;;5.35;;
9767;SDS011;4923;52.520;13.494;2022-11-20T00:09:45;7.93;;;6.00;;
9767;SDS011;4923;52.520;13.494;2022-11-20T00:12:34;6.43;;;5.60;;
9767;SDS011;4923;52.520;13.494;2022-11-20T00:15:21;7.30;;;5.72;;
9767;SDS011;4923;52.520;13.494;2022-11-20T00:18:09;9.18;;;6.78;;
9767;SDS011;4923;52.520;13.494;2022-11-20T00:21:01;7.28;;;5.95;;
9767;SDS011;4923;52.520;13.494;2022-11-20T00:23:49;9.15;;;6.40;;
9767;SDS011;4923;52.520;13.494;2022-11-20T00:26:37;6.63;;;5.75;;
9767;SDS011;4923;52.520;13.494;2022-11-20T00:29:25;7.18;;;5.97;;
9767;SDS011;4923;52.520;13.494;2022-11-20T00:32:12;6.53;;;5.30;;
9767;SDS011;4923;52.520;13.494;2022-11-20T00:34:59;10.60;;;6.50;;
9767;SDS011;4923;52.520;13.494;2022-11-20T00:37:48;6.07;;;5.57;;
9767;SDS011;4923;52.520;13.494;2022-11-20T00:40:35;6.68;;;5.55;;
9767;SDS011;4923;52.520;13.494;2022-11-20T00:43:22;9.23;;;6.35;;
9767;SDS011;4923;52.520;13.494;2022-11-20T00:46:10;8.57;;;6.03;;
9767;SDS011;4923;52.520;13.494;2022-11-20T00:48:59;6.35;;;5.65;;
9767;SDS011;4923;52.520;13.494;2022-11-20T00:51:47;7.47;;;5.85;;
9767;SDS011;4923;52.520;13.494;2022-11-20T00:54:35;7.40;;;5.40;;
9767;SDS011;4923;52.520;13.494;2022-11-20T00:57:22;23.35;;;6.55;;
9767;SDS011;4923;52.520;13.494;2022-11-20T01:00:10;9.43;;;6.25;;
9767;SDS011;4923;52.520;13.494;2022-11-20T01:02:58;7.13;;;5.68;;
9767;SDS011;4923;52.520;13.494;2022-11-20T01:05:45;6.78;;;5.50;;
9767;SDS011;4923;52.520;13.494;2022-11-20T01:08:35;10.63;;;6.35;;
9767;SDS011;4923;52.520;13.494;2022-11-20T01:11:27;8.48;;;6.18;;
9767;SDS011;4923;52.520;13.494;2022-11-20T01:14:16;7.22;;;5.75;;
9767;SDS011;4923;52.520;13.494;2022-11-20T01:17:04;8.90;;;5.90;;
9767;SDS011;4923;52.520;13.494;2022-11-20T01:19:51;9.30;;;6.25;;
9767;SDS011;4923;52.520;13.494;2022-11-20T01:22:38;7.72;;;5.55;;
9767;SDS011;4923;52.520;13.494;2022-11-20T01:25:26;6.20;;;5.55;;
9767;SDS011;4923;52.520;13.494;2022-11-20T01:28:14;6.53;;;5.80;;
9767;SDS011;4923;52.520;13.494;2022-11-20T01:31:09;7.70;;;5.40;;
9767;SDS011;4923;52.520;13.494;2022-11-20T01:34:00;7.38;;;6.18;;
9767;SDS011;4923;52.520;13.494;2022-11-20T01:36:49;7.50;;;5.43;;
9767;SDS011;4923;52.520;13.494;2022-11-20T01:39:36;7.85;;;6.20;;
9767;SDS011;4923;52.520;13.494;2022-11-20T01:42:23;7.45;;;6.38;;
9767;SDS011;4923;52.520;13.494;2022-11-20T01:49:11;7.43;;;5.55;;
9767;SDS011;4923;52.520;13.494;2022-11-20T01:52:07;6.95;;;5.72;;
9767;SDS011;4923;52.520;13.494;2022-11-20T01:55:02;8.25;;;6.22;;
9767;SDS011;4923;52.520;13.494;2022-11-20T01:57:54;6.50;;;5.15;;
9767;SDS011;4923;52.520;13.494;2022-11-20T02:00:41;8.85;;;5.65;;
9767;SDS011;4923;52.520;13.494;2022-11-20T02:03:30;10.65;;;5.78;;
9767;SDS011;4923;52.520;13.494;2022-11-20T02:06:19;6.07;;;5.47;;
9767;SDS011;4923;52.520;13.494;2022-11-20T02:09:11;8.43;;;6.63;;
9767;SDS011;4923;52.520;13.494;2022-11-20T02:11:58;7.00;;;5.90;;
9767;SDS011;4923;52.520;13.494;2022-11-20T02:14:47;7.15;;;5.95;;
9767;SDS011;4923;52.520;13.494;2022-11-20T02:17:32;7.07;;;6.32;;
9767;SDS011;4923;52.520;13.494;2022-11-20T02:20:21;6.63;;;5.90;;
9767;SDS011;4923;52.520;13.494;2022-11-20T02:23:08;9.13;;;5.88;;
9767;SDS011;4923;52.520;13.494;2022-11-20T02:26:00;6.78;;;6.10;;
9767;SDS011;4923;52.520;13.494;2022-11-20T02:28:50;9.07;;;6.15;;
9767;SDS011;4923;52.520;13.494;2022-11-20T02:31:40;6.35;;;5.28;;
9767;SDS011;4923;52.520;13.494;2022-11-20T02:34:28;6.18;;;5.55;;
9767;SDS011;4923;52.520;13.494;2022-11-20T02:37:15;10.27;;;6.20;;
9767;SDS011;4923;52.520;13.494;2022-11-20T02:40:03;10.98;;;5.45;;
9767;SDS011;4923;52.520;13.494;2022-11-20T02:42:52;11.32;;;5.88;;
9767;SDS011;4923;52.520;13.494;2022-11-20T02:45:39;7.18;;;6.15;;
9767;SDS011;4923;52.520;13.494;2022-11-20T02:48:26;6.68;;;5.93;;
9767;SDS011;4923;52.520;13.494;2022-11-20T02:51:13;7.65;;;6.18;;
9767;SDS011;4923;52.520;13.494;2022-11-20T02:54:00;8.93;;;6.50;;
9767;SDS011;4923;52.520;13.494;2022-11-20T02:56:47;7.20;;;6.45;;
9767;SDS011;4923;52.520;13.494;2022-11-20T02:59:35;6.00;;;5.32;;
9767;SDS011;4923;52.520;13.494;2022-11-20T03:02:22;8.45;;;6.38;;
9767;SDS011;4923;52.520;13.494;2022-11-20T03:05:09;7.47;;;6.13;;
9767;SDS011;4923;52.520;13.494;2022-11-20T03:07:56;7.72;;;6.93;;
9767;SDS011;4923;52.520;13.494;2022-11-20T03:10:43;10.25;;;6.47;;
9767;SDS011;4923;52.520;13.494;2022-11-20T03:13:31;8.23;;;6.43;;
9767;SDS011;4923;52.520;13.494;2022-11-20T03:16:21;7.35;;;6.13;;
9767;SDS011;4923;52.520;13.494;2022-11-20T03:19:09;7.55;;;6.03;;
9767;SDS011;4923;52.520;13.494;2022-11-20T03:21:56;6.15;;;5.30;;
9767;SDS011;4923;52.520;13.494;2022-11-20T03:24:42;9.27;;;6.93;;
9767;SDS011;4923;52.520;13.494;2022-11-20T03:27:31;7.65;;;6.20;;
9767;SDS011;4923;52.520;13.494;2022-11-20T03:30:19;8.00;;;5.90;;
9767;SDS011;4923;52.520;13.494;2022-11-20T03:33:07;8.15;;;6.25;;
9767;SDS011;4923;52.520;13.494;2022-11-20T03:35:55;8.60;;;6.63;;
9767;SDS011;4923;52.520;13.494;2022-11-20T03:38:49;7.95;;;6.38;;
9767;SDS011;4923;52.520;13.494;2022-11-20T03:41:37;11.60;;;6.28;;
9767;SDS011;4923;52.520;13.494;2022-11-20T03:44:25;11.30;;;6.32;;
9767;SDS011;4923;52.520;13.494;2022-11-20T03:47:12;7.85;;;5.72;;
9767;SDS011;4923;52.520;13.494;2022-11-20T03:50:00;6.38;;;5.78;;
9767;SDS011;4923;52.520;13.494;2022-11-20T03:52:47;7.57;;;5.82;;
9767;SDS011;4923;52.520;13.494;2022-11-20T03:55:34;9.20;;;6.35;;
9767;SDS011;4923;52.520;13.494;2022-11-20T03:58:21;6.72;;;5.43;;
9767;SDS011;4923;52.520;13.494;2022-11-20T04:01:08;8.70;;;7.35;;
9767;SDS011;4923;52.520;13.494;2022-11-20T04:03:56;7.97;;;6.32;;
9767;SDS011;4923;52.520;13.494;2022-11-20T04:06:45;9.82;;;6.15;;
9767;SDS011;4923;52.520;13.494;2022-11-20T04:09:32;9.82;;;6.25;;
9767;SDS011;4923;52.520;13.494;2022-11-20T04:12:19;6.43;;;5.85;;
9767;SDS011;4923;52.520;13.494;2022-11-20T04:15:06;6.45;;;5.85;;
9767;SDS011;4923;52.520;13.494;2022-11-20T04:17:53;10.75;;;7.20;;
9767;SDS011;4923;52.520;13.494;2022-11-20T04:20:41;9.40;;;6.88;;
9767;SDS011;4923;52.520;13.494;2022-11-20T04:23:29;8.05;;;6.18;;
9767;SDS011;4923;52.520;13.494;2022-11-20T04:26:16;10.13;;;6.63;;
9767;SDS011;4923;52.520;13.494;2022-11-20T04:29:03;9.05;;;7.07;;
9767;SDS011;4923;52.520;13.494;2022-11-20T04:31:50;9.65;;;6.18;;
9767;SDS011;4923;52.520;13.494;2022-11-20T04:34:37;9.93;;;6.15;;
9767;SDS011;4923;52.520;13.494;2022-11-20T04:37:24;10.40;;;6.65;;
9767;SDS011;4923;52.520;13.494;2022-11-20T04:40:13;8.60;;;6.80;;
9767;SDS011;4923;52.520;13.494;2022-11-20T04:43:00;10.65;;;6.47;;
9767;SDS011;4923;52.520;13.494;2022-11-20T04:45:50;8.02;;;6.30;;
9767;SDS011;4923;52.520;13.494;2022-11-20T04:48:37;9.73;;;6.90;;
9767;SDS011;4923;52.520;13.494;2022-11-20T04:51:24;9.52;;;7.20;;
9767;SDS011;4923;52.520;13.494;2022-11-20T04:54:10;10.27;;;6.75;;
9767;SDS011;4923;52.520;13.494;2022-11-20T04:56:59;8.90;;;7.25;;
9767;SDS011;4923;52.520;13.494;2022-11-20T04:59:46;12.10;;;6.22;;
9767;SDS011;4923;52.520;13.494;2022-11-20T05:02:33;7.93;;;6.93;;
9767;SDS011;4923;52.520;13.494;2022-11-20T05:05:20;14.82;;;6.70;;
9767;SDS011;4923;52.520;13.494;2022-11-20T05:08:07;8.10;;;6.40;;
9767;SDS011;4923;52.520;13.494;2022-11-20T05:10:54;9.55;;;7.63;;
9767;SDS011;4923;52.520;13.494;2022-11-20T05:13:47;7.63;;;6.82;;
9767;SDS011;4923;52.520;13.494;2022-11-20T05:16:35;7.32;;;6.50;;
9767;SDS011;4923;52.520;13.494;2022-11-20T05:19:22;6.90;;;6.07;;
9767;SDS011;4923;52.520;13.494;2022-11-20T05:22:08;8.60;;;7.05;;
9767;SDS011;4923;52.520;13.494;2022-11-20T05:24:55;8.60;;;6.55;;
9767;SDS011;4923;52.520;13.494;2022-11-20T05:27:42;8.18;;;6.80;;
9767;SDS011;4923;52.520;13.494;2022-11-20T05:30:31;7.22;;;5.82;;
9767;SDS011;4923;52.520;13.494;2022-11-20T05:33:18;8.90;;;7.60;;
9767;SDS011;4923;52.520;13.494;2022-11-20T05:36:05;11.32;;;6.88;;
9767;SDS011;4923;52.520;13.494;2022-11-20T05:38:53;11.00;;;7.40;;
9767;SDS011;4923;52.520;13.494;2022-11-20T05:41:40;10.15;;;7.57;;
9767;SDS011;4923;52.520;13.494;2022-11-20T05:44:27;9.63;;;6.55;;
9767;SDS011;4923;52.520;13.494;2022-11-20T05:47:16;9.20;;;6.90;;
9767;SDS011;4923;52.520;13.494;2022-11-20T05:50:03;10.90;;;7.13;;
9767;SDS011;4923;52.520;13.494;2022-11-20T05:52:50;10.02;;;6.68;;
9767;SDS011;4923;52.520;13.494;2022-11-20T05:55:37;6.63;;;5.82;;
9767;SDS011;4923;52.520;13.494;2022-11-20T05:58:24;9.48;;;6.40;;
9767;SDS011;4923;52.520;13.494;2022-11-20T06:01:12;10.38;;;7.00;;
9767;SDS011;4923;52.520;13.494;2022-11-20T06:04:02;9.02;;;6.78;;
9767;SDS011;4923;52.520;13.494;2022-11-20T06:06:49;7.70;;;5.95;;
9767;SDS011;4923;52.520;13.494;2022-11-20T06:09:36;8.13;;;6.72;;
9767;SDS011;4923;52.520;13.494;2022-11-20T06:12:23;10.43;;;7.65;;
9767;SDS011;4923;52.520;13.494;2022-11-20T06:15:10;8.07;;;6.97;;
9767;SDS011;4923;52.520;13.494;2022-11-20T06:17:58;12.23;;;6.88;;
9767;SDS011;4923;52.520;13.494;2022-11-20T06:20:47;13.80;;;8.18;;
9767;SDS011;4923;52.520;13.494;2022-11-20T06:23:37;9.52;;;6.63;;
9767;SDS011;4923;52.520;13.494;2022-11-20T06:26:25;9.52;;;6.78;;
9767;SDS011;4923;52.520;13.494;2022-11-20T06:29:16;10.77;;;6.85;;
9767;SDS011;4923;52.520;13.494;2022-11-20T06:32:03;10.90;;;7.15;;
9767;SDS011;4923;52.520;13.494;2022-11-20T06:34:53;12.32;;;7.38;;
9767;SDS011;4923;52.520;13.494;2022-11-20T06:37:43;8.73;;;6.47;;
9767;SDS011;4923;52.520;13.494;2022-11-20T06:40:30;9.30;;;7.30;;
9767;SDS011;4923;52.520;13.494;2022-11-20T06:43:17;10.55;;;7.00;;
9767;SDS011;4923;52.520;13.494;2022-11-20T06:46:04;10.25;;;7.70;;
9767;SDS011;4923;52.520;13.494;2022-11-20T06:48:51;11.25;;;7.18;;
9767;SDS011;4923;52.520;13.494;2022-11-20T06:51:38;10.95;;;6.50;;
9767;SDS011;4923;52.520;13.494;2022-11-20T06:54:27;10.50;;;7.10;;
9767;SDS011;4923;52.520;13.494;2022-11-20T06:57:14;9.23;;;6.55;;
9767;SDS011;4923;52.520;13.494;2022-11-20T07:00:01;8.07;;;6.90;;
9767;SDS011;4923;52.520;13.494;2022-11-20T07:02:49;9.45;;;7.53;;
9767;SDS011;4923;52.520;13.494;2022-11-20T07:05:36;7.03;;;6.20;;
9767;SDS011;4923;52.520;13.494;2022-11-20T07:08:23;9.13;;;6.88;;
9767;SDS011;4923;52.520;13.494;2022-11-20T07:11:13;11.18;;;7.07;;
9767;SDS011;4923;52.520;13.494;2022-11-20T07:14:00;6.85;;;6.15;;
9767;SDS011;4923;52.520;13.494;2022-11-20T07:16:47;9.80;;;7.00;;
9767;SDS011;4923;52.520;13.494;2022-11-20T07:19:34;8.43;;;6.20;;
9767;SDS011;4923;52.520;13.494;2022-11-20T07:22:21;9.20;;;6.97;;
9767;SDS011;4923;52.520;13.494;2022-11-20T07:25:08;9.88;;;6.88;;
9767;SDS011;4923;52.520;13.494;2022-11-20T07:27:58;10.07;;;6.70;;
9767;SDS011;4923;52.520;13.494;2022-11-20T07:30:49;14.55;;;7.57;;
9767;SDS011;4923;52.520;13.494;2022-11-20T07:33:36;8.57;;;6.90;;
9767;SDS011;4923;52.520;13.494;2022-11-20T07:36:30;7.32;;;6.20;;
9767;SDS011;4923;52.520;13.494;2022-11-20T07:39:17;7.43;;;6.43;;
9767;SDS011;4923;52.520;13.494;2022-11-20T07:42:05;11.15;;;6.18;;
9767;SDS011;4923;52.520;13.494;2022-11-20T07:44:54;10.27;;;6.30;;
9767;SDS011;4923;52.520;13.494;2022-11-20T07:47:41;9.23;;;6.32;;
9767;SDS011;4923;52.520;13.494;2022-11-20T07:50:28;7.25;;;6.55;;
9767;SDS011;4923;52.520;13.494;2022-11-20T07:53:16;10.73;;;7.03;;
9767;SDS011;4923;52.520;13.494;2022-11-20T07:56:06;7.72;;;6.22;;
9767;SDS011;4923;52.520;13.494;2022-11-20T07:58:53;11.50;;;7.72;;
9767;SDS011;4923;52.520;13.494;2022-11-20T08:01:43;7.45;;;6.68;;
9767;SDS011;4923;52.520;13.494;2022-11-20T08:04:30;10.15;;;6.68;;
9767;SDS011;4923;52.520;13.494;2022-11-20T08:07:19;10.40;;;7.20;;
9767;SDS011;4923;52.520;13.494;2022-11-20T08:10:07;10.45;;;6.03;;
9767;SDS011;4923;52.520;13.494;2022-11-20T08:12:55;11.25;;;7.47;;
9767;SDS011;4923;52.520;13.494;2022-11-20T08:16:00;8.70;;;6.80;;
9767;SDS011;4923;52.520;13.494;2022-11-20T08:18:48;8.68;;;6.90;;
9767;SDS011;4923;52.520;13.494;2022-11-20T08:21:35;7.50;;;6.40;;
9767;SDS011;4923;52.520;13.494;2022-11-20T08:24:28;8.80;;;6.38;;
9767;SDS011;4923;52.520;13.494;2022-11-20T08:27:17;9.68;;;6.38;;
9767;SDS011;4923;52.520;13.494;2022-11-20T08:30:04;9.93;;;7.03;;
9767;SDS011;4923;52.520;13.494;2022-11-20T08:32:53;12.27;;;7.18;;
9767;SDS011;4923;52.520;13.494;2022-11-20T08:35:42;15.25;;;7.15;;
9767;SDS011;4923;52.520;13.494;2022-11-20T08:38:29;10.43;;;7.28;;
9767;SDS011;4923;52.520;13.494;2022-11-20T08:41:17;13.10;;;6.60;;
9767;SDS011;4923;52.520;13.494;2022-11-20T08:44:11;11.30;;;7.20;;
9767;SDS011;4923;52.520;13.494;2022-11-20T08:46:59;10.45;;;7.50;;
9767;SDS011;4923;52.520;13.494;2022-11-20T08:49:47;14.13;;;8.05;;
9767;SDS011;4923;52.520;13.494;2022-11-20T08:52:36;11.15;;;8.13;;
9767;SDS011;4923;52.520;13.494;2022-11-20T08:55:23;10.48;;;7.30;;
9767;SDS011;4923;52.520;13.494;2022-11-20T08:58:10;12.85;;;6.47;;
9767;SDS011;4923;52.520;13.494;2022-11-20T09:00:57;11.68;;;7.53;;
9767;SDS011;4923;52.520;13.494;2022-11-20T09:03:44;8.07;;;7.03;;
9767;SDS011;4923;52.520;13.494;2022-11-20T09:06:31;10.63;;;7.13;;
9767;SDS011;4923;52.520;13.494;2022-11-20T09:09:19;9.00;;;6.65;;
9767;SDS011;4923;52.520;13.494;2022-11-20T09:12:06;12.82;;;6.93;;
9767;SDS011;4923;52.520;13.494;2022-11-20T09:14:54;7.70;;;6.07;;
9767;SDS011;4923;52.520;13.494;2022-11-20T09:17:41;12.18;;;6.75;;
9767;SDS011;4923;52.520;13.494;2022-11-20T09:20:39;20.70;;;7.88;;
9767;SDS011;4923;52.520;13.494;2022-11-20T09:23:27;10.80;;;7.43;;
9767;SDS011;4923;52.520;13.494;2022-11-20T09:26:21;10.88;;;7.10;;
9767;SDS011;4923;52.520;13.494;2022-11-20T09:29:08;10.32;;;6.68;;
9767;SDS011;4923;52.520;13.494;2022-11-20T09:31:57;8.10;;;6.43;;
9767;SDS011;4923;52.520;13.494;2022-11-20T09:34:46;9.60;;;7.25;;
9767;SDS011;4923;52.520;13.494;2022-11-20T09:37:34;11.95;;;7.22;;
9767;SDS011;4923;52.520;13.494;2022-11-20T09:40:21;9.65;;;6.28;;
9767;SDS011;4923;52.520;13.494;2022-11-20T09:43:12;11.00;;;6.55;;
9767;SDS011;4923;52.520;13.494;2022-11-20T09:46:06;8.07;;;6.50;;
9767;SDS011;4923;52.520;13.494;2022-11-20T09:49:05;7.88;;;6.45;;
9767;SDS011;4923;52.520;13.494;2022-11-20T09:52:06;10.10;;;6.75;;
9767;SDS011;4923;52.520;13.494;2022-11-20T09:55:04;8.68;;;6.70;;
9767;SDS011;4923;52.520;13.494;2022-11-20T09:57:57;7.95;;;6.20;;
9767;SDS011;4923;52.520;13.494;2022-11-20T10:00:46;7.35;;;6.40;;
9767;SDS011;4923;52.520;13.494;2022-11-20T10:03:36;9.40;;;6.35;;
9767;SDS011;4923;52.520;13.494;2022-11-20T10:06:28;8.15;;;6.32;;
9767;SDS011;4923;52.520;13.494;2022-11-20T10:09:19;9.30;;;7.13;;
9767;SDS011;4923;52.520;13.494;2022-11-20T10:12:13;9.82;;;7.43;;
9767;SDS011;4923;52.520;13.494;2022-11-20T10:15:10;7.05;;;6.03;;
9767;SDS011;4923;52.520;13.494;2022-11-20T10:18:08;9.00;;;6.20;;
9767;SDS011;4923;52.520;13.494;2022-11-20T10:21:04;8.00;;;6.60;;
9767;SDS011;4923;52.520;13.494;2022-11-20T10:24:06;8.00;;;5.85;;
9767;SDS011;4923;52.520;13.494;2022-11-20T10:27:30;7.82;;;6.30;;
9767;SDS011;4923;52.520;13.494;2022-11-20T10:30:40;7.72;;;5.88;;
9767;SDS011;4923;52.520;13.494;2022-11-20T10:33:31;6.57;;;5.90;;
9767;SDS011;4923;52.520;13.494;2022-11-20T10:36:23;8.57;;;6.45;;
9767;SDS011;4923;52.520;13.494;2022-11-20T10:39:15;8.60;;;6.85;;
9767;SDS011;4923;52.520;13.494;2022-11-20T10:42:08;13.18;;;6.28;;
9767;SDS011;4923;52.520;13.494;2022-11-20T10:45:02;10.70;;;7.47;;
9767;SDS011;4923;52.520;13.494;2022-11-20T10:48:07;9.43;;;7.45;;
9767;SDS011;4923;52.520;13.494;2022-11-20T10:51:07;11.65;;;6.97;;
9767;SDS011;4923;52.520;13.494;2022-11-20T10:54:01;11.07;;;7.68;;
9767;SDS011;4923;52.520;13.494;2022-11-20T10:57:00;9.95;;;6.43;;
9767;SDS011;4923;52.520;13.494;2022-11-20T11:00:00;13.73;;;7.03;;
9767;SDS011;4923;52.520;13.494;2022-11-20T11:02:50;12.00;;;7.13;;
9767;SDS011;4923;52.520;13.494;2022-11-20T11:05:43;8.18;;;6.70;;
9767;SDS011;4923;52.520;13.494;2022-11-20T11:08:38;7.03;;;6.43;;
9767;SDS011;4923;52.520;13.494;2022-11-20T11:11:27;9.38;;;6.65;;
9767;SDS011;4923;52.520;13.494;2022-11-20T11:14:16;10.35;;;6.90;;
9767;SDS011;4923;52.520;13.494;2022-11-20T11:17:04;7.80;;;6.85;;
9767;SDS011;4923;52.520;13.494;2022-11-20T11:20:01;9.00;;;7.32;;
9767;SDS011;4923;52.520;13.494;2022-11-20T11:22:53;7.40;;;6.10;;
9767;SDS011;4923;52.520;13.494;2022-11-20T11:25:55;11.70;;;6.85;;
9767;SDS011;4923;52.520;13.494;2022-11-20T11:28:53;8.43;;;6.57;;
9767;SDS011;4923;52.520;13.494;2022-11-20T11:31:41;9.52;;;7.60;;
9767;SDS011;4923;52.520;13.494;2022-11-20T11:34:29;6.63;;;5.85;;
9767;SDS011;4923;52.520;13.494;2022-11-20T11:37:18;7.53;;;6.13;;
9767;SDS011;4923;52.520;13.494;2022-11-20T11:40:08;7.50;;;6.35;;
9767;SDS011;4923;52.520;13.494;2022-11-20T11:43:01;6.22;;;5.70;;
9767;SDS011;4923;52.520;13.494;2022-11-20T11:46:23;8.18;;;7.32;;
9767;SDS011;4923;52.520;13.494;2022-11-20T11:49:15;7.00;;;5.80;;
9767;SDS011;4923;52.520;13.494;2022-11-20T11:52:13;8.30;;;6.13;;
9767;SDS011;4923;52.520;13.494;2022-11-20T11:55:05;7.25;;;5.80;;
9767;SDS011;4923;52.520;13.494;2022-11-20T11:58:02;8.70;;;5.72;;
9767;SDS011;4923;52.520;13.494;2022-11-20T12:00:58;5.72;;;5.18;;
9767;SDS011;4923;52.520;13.494;2022-11-20T12:03:52;7.65;;;6.43;;
9767;SDS011;4923;52.520;13.494;2022-11-20T12:06:47;9.32;;;6.13;;
9767;SDS011;4923;52.520;13.494;2022-11-20T12:09:41;6.90;;;6.07;;
9767;SDS011;4923;52.520;13.494;2022-11-20T12:12:35;8.63;;;5.53;;
9767;SDS011;4923;52.520;13.494;2022-11-20T12:15:30;8.98;;;6.00;;
9767;SDS011;4923;52.520;13.494;2022-11-20T12:18:24;6.90;;;5.97;;
9767;SDS011;4923;52.520;13.494;2022-11-20T12:21:17;8.30;;;6.25;;
9767;SDS011;4923;52.520;13.494;2022-11-20T12:24:13;8.20;;;6.40;;
9767;SDS011;4923;52.520;13.494;2022-11-20T12:27:24;8.98;;;5.97;;
9767;SDS011;4923;52.520;13.494;2022-11-20T12:30:26;9.25;;;6.60;;
9767;SDS011;4923;52.520;13.494;2022-11-20T12:33:20;6.97;;;5.60;;
9767;SDS011;4923;52.520;13.494;2022-11-20T12:36:19;9.50;;;6.18;;
9767;SDS011;4923;52.520;13.494;2022-11-20T12:39:19;8.50;;;6.22;;
9767;SDS011;4923;52.520;13.494;2022-11-20T12:42:25;6.15;;;5.60;;
9767;SDS011;4923;52.520;13.494;2022-11-20T12:45:43;6.93;;;6.05;;
9767;SDS011;4923;52.520;13.494;2022-11-20T12:52:08;8.48;;;6.22;;
9767;SDS011;4923;52.520;13.494;2022-11-20T12:55:09;7.10;;;5.80;;
9767;SDS011;4923;52.520;13.494;2022-11-20T12:58:12;7.25;;;5.45;;
9767;SDS011;4923;52.520;13.494;2022-11-20T13:01:06;6.35;;;5.70;;
9767;SDS011;4923;52.520;13.494;2022-11-20T13:04:30;8.73;;;6.53;;
9767;SDS011;4923;52.520;13.494;2022-11-20T13:07:31;7.80;;;5.75;;
9767;SDS011;4923;52.520;13.494;2022-11-20T13:10:23;5.45;;;4.95;;
9767;SDS011;4923;52.520;13.494;2022-11-20T13:13:19;5.30;;;4.80;;
9767;SDS011;4923;52.520;13.494;2022-11-20T13:16:14;6.35;;;4.85;;
9767;SDS011;4923;52.520;13.494;2022-11-20T13:19:08;6.22;;;4.53;;
9767;SDS011;4923;52.520;13.494;2022-11-20T13:21:58;3.90;;;3.60;;
9767;SDS011;4923;52.520;13.494;2022-11-20T13:24:50;3.70;;;3.40;;
9767;SDS011;4923;52.520;13.494;2022-11-20T13:27:46;5.68;;;4.00;;
9767;SDS011;4923;52.520;13.494;2022-11-20T13:30:33;4.03;;;3.63;;
9767;SDS011;4923;52.520;13.494;2022-11-20T13:33:23;3.80;;;3.50;;
9767;SDS011;4923;52.520;13.494;2022-11-20T13:36:20;3.53;;;3.20;;
9767;SDS011;4923;52.520;13.494;2022-11-20T13:39:10;5.07;;;3.90;;
9767;SDS011;4923;52.520;13.494;2022-11-20T13:41:58;3.50;;;3.20;;
9767;SDS011;4923;52.520;13.494;2022-11-20T13:44:47;3.97;;;3.63;;
9767;SDS011;4923;52.520;13.494;2022-11-20T13:47:37;3.85;;;3.38;;
9767;SDS011;4923;52.520;13.494;2022-11-20T13:50:43;4.18;;;3.45;;
9767;SDS011;4923;52.520;13.494;2022-11-20T13:53:48;5.35;;;3.50;;
9767;SDS011;4923;52.520;13.494;2022-11-20T13:57:07;3.70;;;3.08;;
9767;SDS011;4923;52.520;13.494;2022-11-20T14:00:11;4.32;;;3.95;;
9767;SDS011;4923;52.520;13.494;2022-11-20T14:03:02;4.20;;;3.80;;
9767;SDS011;4923;52.520;13.494;2022-11-20T14:06:01;3.55;;;3.25;;
9767;SDS011;4923;52.520;13.494;2022-11-20T14:08:50;9.88;;;3.70;;
9767;SDS011;4923;52.520;13.494;2022-11-20T14:11:44;4.63;;;4.10;;
9767;SDS011;4923;52.520;13.494;2022-11-20T14:14:34;4.40;;;3.97;;
9767;SDS011;4923;52.520;13.494;2022-11-20T14:17:24;6.68;;;3.85;;
9767;SDS011;4923;52.520;13.494;2022-11-20T14:20:17;3.78;;;3.40;;
9767;SDS011;4923;52.520;13.494;2022-11-20T14:23:09;4.15;;;3.30;;
9767;SDS011;4923;52.520;13.494;2022-11-20T14:25:57;4.50;;;3.58;;
9767;SDS011;4923;52.520;13.494;2022-11-20T14:28:47;3.17;;;2.97;;
9767;SDS011;4923;52.520;13.494;2022-11-20T14:31:37;4.20;;;3.80;;
9767;SDS011;4923;52.520;13.494;2022-11-20T14:34:27;5.07;;;3.75;;
9767;SDS011;4923;52.520;13.494;2022-11-20T14:37:18;4.15;;;3.75;;
9767;SDS011;4923;52.520;13.494;2022-11-20T14:40:22;4.03;;;3.72;;
9767;SDS011;4923;52.520;13.494;2022-11-20T14:43:18;6.35;;;4.32;;
9767;SDS011;4923;52.520;13.494;2022-11-20T14:46:08;5.20;;;4.05;;
9767;SDS011;4923;52.520;13.494;2022-11-20T14:48:59;4.63;;;4.20;;
9767;SDS011;4923;52.520;13.494;2022-11-20T14:51:58;7.15;;;5.60;;
9767;SDS011;4923;52.520;13.494;2022-11-20T14:54:46;8.65;;;6.13;;
9767;SDS011;4923;52.520;13.494;2022-11-20T14:57:34;10.38;;;5.38;;
9767;SDS011;4923;52.520;13.494;2022-11-20T15:00:23;4.60;;;4.10;;
9767;SDS011;4923;52.520;13.494;2022-11-20T15:03:14;8.27;;;4.60;;
9767;SDS011;4923;52.520;13.494;2022-11-20T15:06:05;10.30;;;4.22;;
9767;SDS011;4923;52.520;13.494;2022-11-20T15:08:56;5.68;;;4.63;;
9767;SDS011;4923;52.520;13.494;2022-11-20T15:11:50;6.40;;;5.22;;
9767;SDS011;4923;52.520;13.494;2022-11-20T15:14:40;4.40;;;4.05;;
9767;SDS011;4923;52.520;13.494;2022-11-20T15:17:27;6.93;;;4.80;;
9767;SDS011;4923;52.520;13.494;2022-11-20T15:20:15;3.97;;;3.67;;
9767;SDS011;4923;52.520;13.494;2022-11-20T15:23:09;4.18;;;3.63;;
9767;SDS011;4923;52.520;13.494;2022-11-20T15:25:58;3.88;;;3.58;;
9767;SDS011;4923;52.520;13.494;2022-11-20T15:28:45;5.63;;;4.50;;
9767;SDS011;4923;52.520;13.494;2022-11-20T15:31:35;4.55;;;4.15;;
9767;SDS011;4923;52.520;13.494;2022-11-20T15:34:22;5.82;;;4.03;;
9767;SDS011;4923;52.520;13.494;2022-11-20T15:37:09;4.13;;;3.83;;
9767;SDS011;4923;52.520;13.494;2022-11-20T15:40:00;4.95;;;4.53;;
9767;SDS011;4923;52.520;13.494;2022-11-20T15:42:48;3.92;;;3.50;;
9767;SDS011;4923;52.520;13.494;2022-11-20T15:45:54;5.32;;;3.88;;
9767;SDS011;4923;52.520;13.494;2022-11-20T15:48:45;4.60;;;4.13;;
9767;SDS011;4923;52.520;13.494;2022-11-20T15:51:36;5.35;;;4.15;;
9767;SDS011;4923;52.520;13.494;2022-11-20T15:54:25;4.53;;;4.13;;
9767;SDS011;4923;52.520;13.494;2022-11-20T15:57:13;7.22;;;4.95;;
9767;SDS011;4923;52.520;13.494;2022-11-20T16:00:02;5.22;;;4.43;;
9767;SDS011;4923;52.520;13.494;2022-11-20T16:02:49;5.30;;;4.25;;
9767;SDS011;4923;52.520;13.494;2022-11-20T16:05:36;9.45;;;4.88;;
9767;SDS011;4923;52.520;13.494;2022-11-20T16:08:23;14.35;;;5.45;;
9767;SDS011;4923;52.520;13.494;2022-11-20T16:11:10;5.00;;;4.50;;
9767;SDS011;4923;52.520;13.494;2022-11-20T16:14:02;7.63;;;5.07;;
9767;SDS011;4923;52.520;13.494;2022-11-20T16:17:06;8.60;;;4.78;;
9767;SDS011;4923;52.520;13.494;2022-11-20T16:19:54;8.88;;;5.53;;
9767;SDS011;4923;52.520;13.494;2022-11-20T16:22:41;5.10;;;4.38;;
9767;SDS011;4923;52.520;13.494;2022-11-20T16:25:28;6.43;;;4.55;;
9767;SDS011;4923;52.520;13.494;2022-11-20T16:28:15;6.63;;;4.10;;
9767;SDS011;4923;52.520;13.494;2022-11-20T16:31:08;7.43;;;5.00;;
9767;SDS011;4923;52.520;13.494;2022-11-20T16:33:59;6.13;;;4.60;;
9767;SDS011;4923;52.520;13.494;2022-11-20T16:36:54;9.45;;;4.50;;
9767;SDS011;4923;52.520;13.494;2022-11-20T16:39:41;6.82;;;5.10;;
9767;SDS011;4923;52.520;13.494;2022-11-20T16:42:28;5.97;;;4.85;;
9767;SDS011;4923;52.520;13.494;2022-11-20T16:45:19;8.05;;;5.82;;
9767;SDS011;4923;52.520;13.494;2022-11-20T16:48:09;10.63;;;5.90;;
9767;SDS011;4923;52.520;13.494;2022-11-20T16:50:58;10.00;;;5.30;;
9767;SDS011;4923;52.520;13.494;2022-11-20T16:53:45;8.15;;;5.30;;
9767;SDS011;4923;52.520;13.494;2022-11-20T16:56:34;7.50;;;5.60;;
9767;SDS011;4923;52.520;13.494;2022-11-20T16:59:24;5.25;;;4.65;;
9767;SDS011;4923;52.520;13.494;2022-11-20T17:02:11;7.57;;;5.32;;
9767;SDS011;4923;52.520;13.494;2022-11-20T17:04:59;8.18;;;6.03;;
9767;SDS011;4923;52.520;13.494;2022-11-20T17:07:48;7.97;;;5.80;;
9767;SDS011;4923;52.520;13.494;2022-11-20T17:10:35;8.82;;;6.32;;
9767;SDS011;4923;52.520;13.494;2022-11-20T17:13:22;8.45;;;6.35;;
9767;SDS011;4923;52.520;13.494;2022-11-20T17:16:10;6.18;;;5.35;;
9767;SDS011;4923;52.520;13.494;2022-11-20T17:18:59;6.05;;;5.50;;
9767;SDS011;4923;52.520;13.494;2022-11-20T17:21:47;6.55;;;5.95;;
9767;SDS011;4923;52.520;13.494;2022-11-20T17:24:34;8.30;;;6.10;;
9767;SDS011;4923;52.520;13.494;2022-11-20T17:27:21;6.32;;;5.05;;